createdAt,value
2018-05-03T00:00:41.429Z,11.11
2018-05-03T00:01:50.558Z,11.09
2018-05-03T00:03:00.012Z,11.21
2018-05-03T00:04:08.849Z,11.09
2018-05-03T00:05:17.682Z,11.15
2018-05-03T00:06:26.565Z,11.06
2018-05-03T00:07:35.675Z,11.04
2018-05-03T00:08:44.509Z,11.06
2018-05-03T00:09:53.341Z,10.99
2018-05-03T00:11:02.498Z,10.96
2018-05-03T00:12:11.329Z,10.99
2018-05-03T00:13:20.164Z,10.97
2018-05-03T00:14:28.995Z,10.89
2018-05-03T00:15:37.828Z,10.94
2018-05-03T00:16:46.662Z,10.92
2018-05-03T00:17:55.543Z,10.91
2018-05-03T00:19:04.375Z,10.94
2018-05-03T00:20:13.210Z,10.89
2018-05-03T00:21:22.053Z,10.89
2018-05-03T00:22:30.885Z,10.92
2018-05-03T00:23:39.766Z,10.81
2018-05-03T00:24:48.601Z,10.91
2018-05-03T00:25:57.435Z,10.92
2018-05-03T00:27:06.541Z,10.89
2018-05-03T00:28:15.378Z,10.92
2018-05-03T00:29:24.205Z,10.92
2018-05-03T00:30:33.039Z,10.82
2018-05-03T00:31:42.152Z,10.88
2018-05-03T00:32:51.263Z,10.89
2018-05-03T00:34:00.096Z,10.85
2018-05-03T00:35:09.178Z,10.74
2018-05-03T00:36:18.289Z,10.67
2018-05-03T00:37:27.396Z,10.61
2018-05-03T00:38:36.234Z,10.63
2018-05-03T00:39:45.343Z,10.59
2018-05-03T00:40:54.175Z,10.53
2018-05-03T00:42:03.005Z,10.52
2018-05-03T00:43:11.837Z,10.41
2018-05-03T00:44:20.670Z,10.42
2018-05-03T00:45:29.501Z,10.42
2018-05-03T00:46:38.387Z,10.36
2018-05-03T00:47:47.492Z,10.34
2018-05-03T00:48:56.342Z,10.41
2018-05-03T00:50:05.158Z,10.4
2018-05-03T00:51:13.989Z,10.25
2018-05-03T00:52:22.872Z,10.34
2018-05-03T00:53:31.706Z,10.22
2018-05-03T00:54:40.540Z,10.17
2018-05-03T00:55:49.373Z,10.22
2018-05-03T00:56:58.205Z,10.26
2018-05-03T00:58:07.090Z,10.15
2018-05-03T00:59:15.923Z,10.2
2018-05-03T01:00:24.753Z,10.2
2018-05-03T01:01:33.587Z,10.15
2018-05-03T01:02:42.414Z,10.11
2018-05-03T01:03:51.397Z,10.11
2018-05-03T01:05:00.505Z,10.17
2018-05-03T01:06:09.337Z,10.11
2018-05-03T01:07:18.170Z,10.12
2018-05-03T01:08:27.000Z,10.07
2018-05-03T01:09:35.934Z,10.05
2018-05-03T01:10:44.765Z,9.91
2018-05-03T01:11:53.965Z,9.91
2018-05-03T01:13:02.798Z,9.91
2018-05-03T01:14:11.916Z,9.94
2018-05-03T01:15:21.327Z,9.93
2018-05-03T01:16:30.158Z,9.9
2018-05-03T01:17:38.991Z,9.93
2018-05-03T01:18:47.827Z,9.96
2018-05-03T01:19:56.658Z,9.93
2018-05-03T01:21:05.590Z,9.93
2018-05-03T01:22:14.423Z,9.93
2018-05-03T01:23:23.252Z,9.97
2018-05-03T01:24:32.086Z,9.93
2018-05-03T01:25:40.917Z,9.96
2018-05-03T01:26:49.850Z,9.89
2018-05-03T01:27:58.980Z,9.9
2018-05-03T01:29:07.816Z,9.83
2018-05-03T01:30:16.642Z,9.89
2018-05-03T01:31:25.480Z,9.9
2018-05-03T01:32:34.686Z,9.9
2018-05-03T01:33:43.518Z,9.96
2018-05-03T01:34:52.631Z,9.97
2018-05-03T01:36:01.460Z,9.91
2018-05-03T01:37:10.572Z,9.86
2018-05-03T01:38:19.554Z,9.9
2018-05-03T01:39:28.381Z,9.76
2018-05-03T01:40:37.213Z,9.84
2018-05-03T01:41:46.045Z,9.91
2018-05-03T01:42:54.876Z,9.79
2018-05-03T01:44:03.908Z,9.75
2018-05-03T01:45:12.808Z,9.78
2018-05-03T01:46:21.925Z,9.72
2018-05-03T01:47:31.030Z,9.79
2018-05-03T01:48:39.863Z,9.75
2018-05-03T01:49:49.070Z,9.79
2018-05-03T01:50:57.903Z,9.72
2018-05-03T01:52:06.735Z,9.78
2018-05-03T01:53:15.566Z,9.81
2018-05-03T01:54:24.398Z,9.79
2018-05-03T01:55:33.501Z,9.86
2018-05-03T01:56:42.332Z,9.9
2018-05-03T01:57:51.164Z,9.86
2018-05-03T01:59:00.270Z,9.79
2018-05-03T02:00:09.099Z,9.83
2018-05-03T02:01:17.932Z,9.83
2018-05-03T02:02:26.765Z,9.83
2018-05-03T02:03:35.604Z,9.89
2018-05-03T02:04:44.430Z,9.87
2018-05-03T02:05:53.264Z,9.87
2018-05-03T02:07:02.617Z,9.91
2018-05-03T02:08:11.448Z,9.87
2018-05-03T02:09:20.279Z,9.86
2018-05-03T02:10:29.111Z,9.87
2018-05-03T02:11:38.219Z,9.81
2018-05-03T02:12:47.326Z,9.91
2018-05-03T02:13:56.157Z,9.76
2018-05-03T02:15:05.265Z,9.78
2018-05-03T02:16:14.373Z,9.78
2018-05-03T02:17:23.201Z,9.76
2018-05-03T02:18:32.335Z,9.76
2018-05-03T02:19:41.163Z,9.78
2018-05-03T02:20:50.556Z,9.83
2018-05-03T02:21:59.384Z,9.75
2018-05-03T02:23:08.215Z,9.79
2018-05-03T02:24:17.151Z,9.9
2018-05-03T02:25:25.983Z,9.83
2018-05-03T02:26:35.091Z,9.84
2018-05-03T02:27:43.921Z,9.83
2018-05-03T02:28:53.035Z,9.83
2018-05-03T02:30:02.154Z,9.89
2018-05-03T02:31:11.264Z,9.83
2018-05-03T02:32:20.381Z,9.89
2018-05-03T02:33:29.485Z,9.9
2018-05-03T02:34:38.603Z,9.87
2018-05-03T02:35:48.104Z,9.93
2018-05-03T02:36:57.219Z,9.81
2018-05-03T02:38:06.049Z,9.79
2018-05-03T02:39:14.881Z,9.78
2018-05-03T02:40:24.537Z,9.81
2018-05-03T02:41:33.368Z,9.76
2018-05-03T02:42:42.481Z,9.71
2018-05-03T02:43:51.590Z,9.74
2018-05-03T02:45:00.980Z,9.79
2018-05-03T02:46:10.088Z,9.89
2018-05-03T02:47:19.499Z,9.81
2018-05-03T02:48:28.604Z,9.78
2018-05-03T02:49:37.713Z,9.74
2018-05-03T02:50:46.544Z,9.83
2018-05-03T02:51:55.950Z,9.72
2018-05-03T02:53:05.760Z,9.74
2018-05-03T02:54:15.171Z,9.74
2018-05-03T02:55:24.279Z,9.79
2018-05-03T02:56:33.657Z,9.83
2018-05-03T02:57:42.763Z,9.71
2018-05-03T02:58:51.595Z,9.71
2018-05-03T03:00:00.432Z,9.69
2018-05-03T03:01:09.259Z,9.76
2018-05-03T03:02:18.378Z,9.71
2018-05-03T03:03:27.198Z,9.83
2018-05-03T03:04:36.607Z,9.79
2018-05-03T03:05:45.441Z,9.78
2018-05-03T03:06:54.594Z,9.84
2018-05-03T03:08:03.982Z,9.86
2018-05-03T03:09:12.821Z,9.87
2018-05-03T03:10:22.798Z,9.9
2018-05-03T03:11:31.916Z,9.84
2018-05-03T03:12:41.857Z,9.91
2018-05-03T03:13:50.691Z,9.93
2018-05-03T03:14:59.525Z,9.91
2018-05-03T03:16:08.457Z,9.9
2018-05-03T03:17:17.283Z,9.87
2018-05-03T03:18:26.115Z,9.9
2018-05-03T03:19:35.499Z,9.9
2018-05-03T03:20:44.331Z,9.94
2018-05-03T03:21:53.319Z,9.96
2018-05-03T03:23:02.423Z,10.01
2018-05-03T03:24:11.258Z,10.01
2018-05-03T03:25:20.090Z,10.01
2018-05-03T03:26:29.201Z,9.91
2018-05-03T03:27:38.184Z,9.99
2018-05-03T03:28:47.294Z,10.08
2018-05-03T03:29:56.127Z,10.08
2018-05-03T03:31:05.288Z,10.07
2018-05-03T03:32:14.668Z,10.08
2018-05-03T03:33:23.899Z,10.07
2018-05-03T03:34:32.731Z,10.11
2018-05-03T03:35:41.845Z,10.11
2018-05-03T03:36:50.676Z,10.18
2018-05-03T03:37:59.797Z,10.18
2018-05-03T03:39:09.064Z,10.2
2018-05-03T03:40:17.901Z,10.14
2018-05-03T03:41:26.727Z,10.18
2018-05-03T03:42:35.840Z,10.23
2018-05-03T03:43:44.672Z,10.18
2018-05-03T03:44:53.504Z,10.3
2018-05-03T03:46:02.335Z,10.32
2018-05-03T03:47:11.446Z,10.38
2018-05-03T03:48:20.554Z,10.45
2018-05-03T03:49:29.389Z,10.41
2018-05-03T03:50:38.596Z,10.45
2018-05-03T03:51:47.707Z,10.45
2018-05-03T03:52:56.536Z,10.51
2018-05-03T03:54:05.366Z,10.53
2018-05-03T03:55:14.197Z,10.55
2018-05-03T03:56:23.230Z,10.51
2018-05-03T03:57:32.377Z,10.6
2018-05-03T03:58:41.168Z,10.63
2018-05-03T03:59:49.998Z,10.6
2018-05-03T04:00:58.831Z,10.68
2018-05-03T04:02:08.613Z,10.68
2018-05-03T04:03:17.720Z,10.78
2018-05-03T04:04:27.168Z,10.73
2018-05-03T04:05:36.005Z,10.76
2018-05-03T04:06:45.106Z,10.79
2018-05-03T04:07:54.038Z,10.91
2018-05-03T04:09:03.149Z,10.91
2018-05-03T04:10:11.979Z,11
2018-05-03T04:11:20.814Z,10.99
2018-05-03T04:12:29.646Z,11.02
2018-05-03T04:13:38.879Z,11
2018-05-03T04:14:47.710Z,10.91
2018-05-03T04:15:56.538Z,10.92
2018-05-03T04:17:05.370Z,10.91
2018-05-03T04:18:14.206Z,10.94
2018-05-03T04:19:23.139Z,10.91
2018-05-03T04:20:32.244Z,10.89
2018-05-03T04:21:41.078Z,10.85
2018-05-03T04:22:49.911Z,11.06
2018-05-03T04:23:59.017Z,10.89
2018-05-03T04:25:07.899Z,11.04
2018-05-03T04:26:17.014Z,11.09
2018-05-03T04:27:26.124Z,10.88
2018-05-03T04:28:35.230Z,10.92
2018-05-03T04:29:44.063Z,10.88
2018-05-03T04:30:52.896Z,10.94
2018-05-03T04:32:01.728Z,10.94
2018-05-03T04:33:10.559Z,10.88
2018-05-03T04:34:19.672Z,10.94
2018-05-03T04:35:28.505Z,11.03
2018-05-03T04:36:37.490Z,10.86
2018-05-03T04:37:46.324Z,10.88
2018-05-03T04:38:55.154Z,10.84
2018-05-03T04:40:03.987Z,10.94
2018-05-03T04:41:13.097Z,10.91
2018-05-03T04:42:22.306Z,10.81
2018-05-03T04:43:31.139Z,10.74
2018-05-03T04:44:39.972Z,10.7
2018-05-03T04:45:48.819Z,10.61
2018-05-03T04:46:58.108Z,10.63
2018-05-03T04:48:07.181Z,10.7
2018-05-03T04:49:16.293Z,10.67
2018-05-03T04:50:25.129Z,10.59
2018-05-03T04:51:33.959Z,10.79
2018-05-03T04:52:42.793Z,10.63
2018-05-03T04:53:52.150Z,10.81
2018-05-03T04:55:00.986Z,10.66
2018-05-03T04:56:09.825Z,10.63
2018-05-03T04:57:18.655Z,10.51
2018-05-03T04:58:27.488Z,10.63
2018-05-03T04:59:36.320Z,10.61
2018-05-03T05:00:45.157Z,10.63
2018-05-03T05:01:54.264Z,10.64
2018-05-03T05:03:03.373Z,10.66
2018-05-03T05:04:12.205Z,10.61
2018-05-03T05:05:21.136Z,10.68
2018-05-03T05:06:29.971Z,10.6
2018-05-03T05:07:38.803Z,10.56
2018-05-03T05:08:47.635Z,10.48
2018-05-03T05:09:56.467Z,10.52
2018-05-03T05:11:05.451Z,10.4
2018-05-03T05:12:14.283Z,10.36
2018-05-03T05:13:23.115Z,10.6
2018-05-03T05:14:31.943Z,10.53
2018-05-03T05:15:40.785Z,10.48
2018-05-03T05:16:49.945Z,10.45
2018-05-03T05:17:59.263Z,10.51
2018-05-03T05:19:08.058Z,10.45
2018-05-03T05:20:16.886Z,10.44
2018-05-03T05:21:26.004Z,10.38
2018-05-03T05:22:35.361Z,10.36
2018-05-03T05:23:44.192Z,10.36
2018-05-03T05:24:53.023Z,10.47
2018-05-03T05:26:01.853Z,10.33
2018-05-03T05:27:10.958Z,10.42
2018-05-03T05:28:20.091Z,10.51
2018-05-03T05:29:28.926Z,10.44
2018-05-03T05:30:37.788Z,10.41
2018-05-03T05:31:46.593Z,10.33
2018-05-03T05:32:55.428Z,10.42
2018-05-03T05:34:04.311Z,10.47
2018-05-03T05:35:13.150Z,10.47
2018-05-03T05:36:22.256Z,10.41
2018-05-03T05:37:31.090Z,10.4
2018-05-03T05:38:39.942Z,10.27
2018-05-03T05:39:49.676Z,10.32
2018-05-03T05:40:58.505Z,10.33
2018-05-03T05:42:07.337Z,10.33
2018-05-03T05:43:16.166Z,10.26
2018-05-03T05:44:25.464Z,10.27
2018-05-03T05:45:34.295Z,10.33
2018-05-03T05:46:43.403Z,10.38
2018-05-03T05:47:52.238Z,10.47
2018-05-03T05:49:01.073Z,10.48
2018-05-03T05:50:09.903Z,10.52
2018-05-03T05:51:18.907Z,10.45
2018-05-03T05:52:28.131Z,10.33
2018-05-03T05:53:36.966Z,10.4
2018-05-03T05:54:45.802Z,10.38
2018-05-03T05:55:54.634Z,10.36
2018-05-03T05:57:03.881Z,10.52
2018-05-03T05:58:12.963Z,10.38
2018-05-03T05:59:22.078Z,10.29
2018-05-03T06:00:30.912Z,10.44
2018-05-03T06:01:39.747Z,10.61
2018-05-03T06:02:48.630Z,10.67
2018-05-03T06:03:57.463Z,10.51
2018-05-03T06:05:06.299Z,10.42
2018-05-03T06:06:15.135Z,10.44
2018-05-03T06:07:23.969Z,10.45
2018-05-03T06:08:33.001Z,10.38
2018-05-03T06:09:41.837Z,10.47
2018-05-03T06:10:50.950Z,10.34
2018-05-03T06:11:59.779Z,10.34
2018-05-03T06:13:08.613Z,10.42
2018-05-03T06:14:17.445Z,10.41
2018-05-03T06:15:26.556Z,10.3
2018-05-03T06:16:35.388Z,10.27
2018-05-03T06:17:44.505Z,10.29
2018-05-03T06:18:53.340Z,10.29
2018-05-03T06:20:02.273Z,10.33
2018-05-03T06:21:11.658Z,10.45
2018-05-03T06:22:20.766Z,10.4
2018-05-03T06:23:29.596Z,10.38
2018-05-03T06:24:38.427Z,10.38
2018-05-03T06:25:47.261Z,10.44
2018-05-03T06:26:56.093Z,10.4
2018-05-03T06:28:04.926Z,10.45
2018-05-03T06:29:13.758Z,10.78
2018-05-03T06:30:22.593Z,10.68
2018-05-03T06:31:31.530Z,10.53
2018-05-03T06:32:40.364Z,10.45
2018-05-03T06:33:49.195Z,10.42
2018-05-03T06:34:58.301Z,10.42
2018-05-03T06:36:07.416Z,10.45
2018-05-03T06:37:16.397Z,10.78
2018-05-03T06:38:25.229Z,10.73
2018-05-03T06:39:34.355Z,10.73
2018-05-03T06:40:43.188Z,10.78
2018-05-03T06:41:52.020Z,10.6
2018-05-03T06:43:00.851Z,10.76
2018-05-03T06:44:09.684Z,10.73
2018-05-03T06:45:18.827Z,10.79
2018-05-03T06:46:27.624Z,10.73
2018-05-03T06:47:36.457Z,10.7
2018-05-03T06:48:45.288Z,10.61
2018-05-03T06:49:54.120Z,10.64
2018-05-03T06:51:02.953Z,10.74
2018-05-03T06:52:11.789Z,10.59
2018-05-03T06:53:20.622Z,10.63
2018-05-03T06:54:29.505Z,10.79
2018-05-03T06:55:38.627Z,10.84
2018-05-03T06:56:47.462Z,10.96
2018-05-03T06:57:56.297Z,10.85
2018-05-03T06:59:05.128Z,10.81
2018-05-03T07:00:14.113Z,10.84
2018-05-03T07:01:23.219Z,10.84
2018-05-03T07:02:32.056Z,11.02
2018-05-03T07:03:40.889Z,10.92
2018-05-03T07:04:49.722Z,10.94
2018-05-03T07:05:58.609Z,10.88
2018-05-03T07:07:07.440Z,10.99
2018-05-03T07:08:16.271Z,11.06
2018-05-03T07:09:25.106Z,11.04
2018-05-03T07:10:33.946Z,11.04
2018-05-03T07:11:42.928Z,11.02
2018-05-03T07:12:52.032Z,11.06
2018-05-03T07:14:00.865Z,11.11
2018-05-03T07:15:09.699Z,11.27
2018-05-03T07:16:18.580Z,11.29
2018-05-03T07:17:27.789Z,11.22
2018-05-03T07:18:36.900Z,11.28
2018-05-03T07:19:45.730Z,11.21
2018-05-03T07:20:54.561Z,11.39
2018-05-03T07:22:03.468Z,11.27
2018-05-03T07:23:12.505Z,11.25
2018-05-03T07:24:21.340Z,11.11
2018-05-03T07:25:30.177Z,11.4
2018-05-03T07:26:39.294Z,11.42
2018-05-03T07:27:48.127Z,11.39
2018-05-03T07:28:57.068Z,11.37
2018-05-03T07:30:05.896Z,11.36
2018-05-03T07:31:14.728Z,11.35
2018-05-03T07:32:23.561Z,11.35
2018-05-03T07:33:32.394Z,11.47
2018-05-03T07:34:42.090Z,11.44
2018-05-03T07:35:50.891Z,11.44
2018-05-03T07:37:00.003Z,11.44
2018-05-03T07:38:08.838Z,11.54
2018-05-03T07:39:17.971Z,11.51
2018-05-03T07:40:26.806Z,11.52
2018-05-03T07:41:35.639Z,11.54
2018-05-03T07:42:44.746Z,11.58
2018-05-03T07:43:53.577Z,11.55
2018-05-03T07:45:02.431Z,11.6
2018-05-03T07:46:11.361Z,11.61
2018-05-03T07:47:20.202Z,11.58
2018-05-03T07:48:29.118Z,11.54
2018-05-03T07:49:38.181Z,11.75
2018-05-03T07:50:47.018Z,11.65
2018-05-03T07:51:56.403Z,11.67
2018-05-03T07:53:05.240Z,11.64
2018-05-03T07:54:14.348Z,11.58
2018-05-03T07:55:23.181Z,11.69
2018-05-03T07:56:32.021Z,11.8
2018-05-03T07:57:41.058Z,11.76
2018-05-03T07:58:49.892Z,11.79
2018-05-03T07:59:58.725Z,11.88
2018-05-03T08:01:07.561Z,11.8
2018-05-03T08:02:16.791Z,11.8
2018-05-03T08:03:26.000Z,11.75
2018-05-03T08:04:34.836Z,11.82
2018-05-03T08:05:44.234Z,11.79
2018-05-03T08:06:53.339Z,11.96
2018-05-03T08:08:02.171Z,12.1
2018-05-03T08:09:11.278Z,12.09
2018-05-03T08:10:20.110Z,12.04
2018-05-03T08:11:28.944Z,12.1
2018-05-03T08:12:38.225Z,12.07
2018-05-03T08:13:47.346Z,12.12
2018-05-03T08:14:56.279Z,12.16
2018-05-03T08:16:05.388Z,12.19
2018-05-03T08:17:14.224Z,12.31
2018-05-03T08:18:23.058Z,12.28
2018-05-03T08:19:31.891Z,12.16
2018-05-03T08:20:40.924Z,12.21
2018-05-03T08:21:49.756Z,12.31
2018-05-03T08:22:58.591Z,12.38
2018-05-03T08:24:07.424Z,12.39
2018-05-03T08:25:16.257Z,12.47
2018-05-03T08:26:25.142Z,12.54
2018-05-03T08:27:34.264Z,12.6
2018-05-03T08:28:43.101Z,12.49
2018-05-03T08:29:52.210Z,12.71
2018-05-03T08:31:01.044Z,12.56
2018-05-03T08:32:09.934Z,12.65
2018-05-03T08:33:18.768Z,12.78
2018-05-03T08:34:28.160Z,12.82
2018-05-03T08:35:36.995Z,12.79
2018-05-03T08:36:45.831Z,12.95
2018-05-03T08:37:54.765Z,12.92
2018-05-03T08:39:03.600Z,12.92
2018-05-03T08:40:12.435Z,12.96
2018-05-03T08:41:21.270Z,13.08
2018-05-03T08:42:30.107Z,12.97
2018-05-03T08:43:38.944Z,13
2018-05-03T08:44:47.789Z,13.01
2018-05-03T08:45:56.904Z,13.03
2018-05-03T08:47:05.747Z,12.97
2018-05-03T08:48:14.578Z,12.95
2018-05-03T08:49:23.813Z,13.05
2018-05-03T08:50:32.925Z,13.11
2018-05-03T08:51:41.759Z,13.25
2018-05-03T08:52:50.598Z,13.42
2018-05-03T08:53:59.704Z,13.26
2018-05-03T08:55:08.919Z,13.26
2018-05-03T08:56:17.754Z,13.39
2018-05-03T08:57:26.590Z,13.42
2018-05-03T08:58:35.701Z,13.39
2018-05-03T08:59:44.536Z,13.48
2018-05-03T09:00:53.673Z,13.52
2018-05-03T09:02:02.511Z,13.49
2018-05-03T09:03:11.630Z,13.41
2018-05-03T09:04:20.747Z,13.32
2018-05-03T09:05:29.578Z,13.29
2018-05-03T09:06:38.560Z,13.36
2018-05-03T09:07:47.433Z,13.39
2018-05-03T09:08:56.839Z,13.33
2018-05-03T09:10:05.950Z,13.52
2018-05-03T09:11:14.792Z,13.49
2018-05-03T09:12:23.932Z,13.45
2018-05-03T09:13:32.763Z,13.45
2018-05-03T09:14:41.874Z,13.49
2018-05-03T09:15:50.711Z,13.52
2018-05-03T09:16:59.542Z,13.46
2018-05-03T09:18:08.652Z,13.55
2018-05-03T09:19:17.491Z,13.55
2018-05-03T09:20:26.326Z,13.59
2018-05-03T09:21:35.162Z,13.6
2018-05-03T09:22:43.996Z,13.55
2018-05-03T09:23:52.830Z,13.57
2018-05-03T09:25:01.667Z,13.55
2018-05-03T09:26:10.601Z,13.46
2018-05-03T09:27:19.621Z,13.49
2018-05-03T09:28:28.454Z,13.39
2018-05-03T09:29:37.492Z,13.49
2018-05-03T09:30:46.593Z,13.3
2018-05-03T09:31:55.427Z,13.36
2018-05-03T09:33:04.261Z,13.19
2018-05-03T09:34:13.095Z,13.29
2018-05-03T09:35:22.204Z,13.42
2018-05-03T09:36:31.038Z,13.49
2018-05-03T09:37:40.146Z,13.32
2018-05-03T09:38:48.983Z,13.49
2018-05-03T09:39:57.819Z,13.6
2018-05-03T09:41:07.078Z,13.52
2018-05-03T09:42:15.915Z,13.59
2018-05-03T09:43:24.750Z,13.63
2018-05-03T09:44:33.873Z,13.77
2018-05-03T09:45:42.979Z,13.79
2018-05-03T09:46:52.090Z,13.73
2018-05-03T09:48:00.925Z,13.7
2018-05-03T09:49:09.762Z,13.71
2018-05-03T09:50:18.597Z,13.71
2018-05-03T09:51:27.432Z,13.73
2018-05-03T09:52:36.573Z,13.81
2018-05-03T09:53:45.405Z,13.87
2018-05-03T09:54:54.238Z,14
2018-05-03T09:56:03.075Z,13.96
2018-05-03T09:57:11.911Z,13.89
2018-05-03T09:58:20.849Z,14.1
2018-05-03T09:59:30.009Z,13.99
2018-05-03T10:00:38.799Z,13.99
2018-05-03T10:01:47.904Z,13.99
2018-05-03T10:02:56.746Z,14.02
2018-05-03T10:04:05.682Z,13.95
2018-05-03T10:05:14.520Z,14.06
2018-05-03T10:06:23.633Z,14.07
2018-05-03T10:07:32.471Z,14.1
2018-05-03T10:08:41.308Z,14.14
2018-05-03T10:09:50.521Z,14.22
2018-05-03T10:10:59.357Z,14.24
2018-05-03T10:12:08.747Z,14.35
2018-05-03T10:13:17.662Z,14.28
2018-05-03T10:14:26.414Z,14.39
2018-05-03T10:15:35.806Z,14.43
2018-05-03T10:16:44.641Z,14.42
2018-05-03T10:17:53.752Z,14.33
2018-05-03T10:19:02.590Z,14.27
2018-05-03T10:20:11.425Z,14.21
2018-05-03T10:21:20.563Z,14.14
2018-05-03T10:22:29.398Z,14.15
2018-05-03T10:23:38.235Z,14.24
2018-05-03T10:24:47.068Z,14.25
2018-05-03T10:25:55.905Z,14.27
2018-05-03T10:27:04.991Z,14.46
2018-05-03T10:28:13.827Z,14.39
2018-05-03T10:29:22.936Z,14.36
2018-05-03T10:30:31.773Z,14.33
2018-05-03T10:31:40.614Z,14.39
2018-05-03T10:32:49.923Z,14.51
2018-05-03T10:33:58.769Z,14.55
2018-05-03T10:35:07.608Z,14.58
2018-05-03T10:36:16.544Z,14.64
2018-05-03T10:37:25.596Z,14.64
2018-05-03T10:38:34.537Z,14.68
2018-05-03T10:39:43.646Z,14.77
2018-05-03T10:40:52.481Z,14.73
2018-05-03T10:42:01.348Z,14.72
2018-05-03T10:43:10.561Z,14.62
2018-05-03T10:44:19.547Z,14.68
2018-05-03T10:45:28.383Z,14.72
2018-05-03T10:46:37.218Z,14.7
2018-05-03T10:47:46.052Z,14.64
2018-05-03T10:48:55.188Z,14.8
2018-05-03T10:50:04.125Z,14.62
2018-05-03T10:51:12.959Z,14.86
2018-05-03T10:52:21.799Z,14.89
2018-05-03T10:53:30.631Z,14.98
2018-05-03T10:54:39.744Z,15.21
2018-05-03T10:55:49.142Z,15.11
2018-05-03T10:56:57.975Z,15.01
2018-05-03T10:58:07.092Z,15.01
2018-05-03T10:59:15.929Z,15.2
2018-05-03T11:00:24.769Z,15.17
2018-05-03T11:01:33.699Z,15.28
2018-05-03T11:02:42.535Z,15.29
2018-05-03T11:03:51.370Z,15.2
2018-05-03T11:05:00.210Z,15.19
2018-05-03T11:06:09.050Z,15.29
2018-05-03T11:07:18.033Z,15.25
2018-05-03T11:08:26.869Z,15.27
2018-05-03T11:09:35.711Z,15.29
2018-05-03T11:10:44.539Z,15.44
2018-05-03T11:11:53.375Z,15.51
2018-05-03T11:13:02.737Z,15.57
2018-05-03T11:14:11.573Z,15.53
2018-05-03T11:15:20.411Z,15.54
2018-05-03T11:16:29.247Z,15.56
2018-05-03T11:17:38.089Z,15.53
2018-05-03T11:18:47.226Z,15.67
2018-05-03T11:19:56.063Z,15.54
2018-05-03T11:21:05.175Z,15.53
2018-05-03T11:22:14.289Z,15.71
2018-05-03T11:23:23.132Z,15.78
2018-05-03T11:24:32.079Z,15.94
2018-05-03T11:25:40.947Z,16.04
2018-05-03T11:26:50.216Z,16.12
2018-05-03T11:27:59.559Z,16.27
2018-05-03T11:29:09.595Z,16.2
2018-05-03T11:30:18.602Z,16.28
2018-05-03T11:31:28.061Z,16.35
2018-05-03T11:32:38.416Z,16.57
2018-05-03T11:33:47.798Z,16.66
2018-05-03T11:34:57.386Z,16.58
2018-05-03T11:36:06.550Z,16.58
2018-05-03T11:37:15.437Z,16.52
2018-05-03T11:38:24.508Z,16.58
2018-05-03T11:39:33.853Z,16.46
2018-05-03T11:40:42.739Z,16.46
2018-05-03T11:41:51.852Z,16.38
2018-05-03T11:43:01.207Z,16.33
2018-05-03T11:44:10.075Z,16.42
2018-05-03T11:45:19.205Z,16.43
2018-05-03T11:46:28.111Z,16.35
2018-05-03T11:47:37.271Z,16.28
2018-05-03T11:48:46.591Z,16.48
2018-05-03T11:49:55.847Z,16.48
2018-05-03T11:51:05.266Z,16.58
2018-05-03T11:52:14.436Z,16.68
2018-05-03T11:53:23.274Z,16.78
2018-05-03T11:54:32.123Z,16.91
2018-05-03T11:55:41.330Z,17
2018-05-03T11:56:50.166Z,17.08
2018-05-03T11:57:59.013Z,17.18
2018-05-03T11:59:07.857Z,17.11
2018-05-03T12:00:16.682Z,17.04
2018-05-03T12:01:25.897Z,16.89
2018-05-03T12:02:34.737Z,16.89
2018-05-03T12:03:43.852Z,16.81
2018-05-03T12:04:52.967Z,16.73
2018-05-03T12:06:02.256Z,16.78
2018-05-03T12:07:11.759Z,16.73
2018-05-03T12:08:20.597Z,16.78
2018-05-03T12:09:29.433Z,16.81
2018-05-03T12:10:38.272Z,16.82
2018-05-03T12:11:47.478Z,16.88
2018-05-03T12:12:56.944Z,16.96
2018-05-03T12:14:06.062Z,16.93
2018-05-03T12:15:14.899Z,16.91
2018-05-03T12:16:23.739Z,16.97
2018-05-03T12:17:32.582Z,16.88
2018-05-03T12:18:41.420Z,16.83
2018-05-03T12:19:50.256Z,16.85
2018-05-03T12:20:59.096Z,16.91
2018-05-03T12:22:07.945Z,16.86
2018-05-03T12:23:16.783Z,16.97
2018-05-03T12:24:26.042Z,16.91
2018-05-03T12:25:35.140Z,16.86
2018-05-03T12:26:43.979Z,16.81
2018-05-03T12:27:52.818Z,16.76
2018-05-03T12:29:01.660Z,16.86
2018-05-03T12:30:10.974Z,16.93
2018-05-03T12:31:19.814Z,16.89
2018-05-03T12:32:28.649Z,16.91
2018-05-03T12:33:37.494Z,16.89
2018-05-03T12:34:46.655Z,16.98
2018-05-03T12:35:55.835Z,17.06
2018-05-03T12:37:04.672Z,17.18
2018-05-03T12:38:13.786Z,17.21
2018-05-03T12:39:22.626Z,17.28
2018-05-03T12:40:31.470Z,17.14
2018-05-03T12:41:40.408Z,17.22
2018-05-03T12:42:49.249Z,17.08
2018-05-03T12:43:58.089Z,17.06
2018-05-03T12:45:07.218Z,17.15
2018-05-03T12:46:16.054Z,17.12
2018-05-03T12:47:25.037Z,17.08
2018-05-03T12:48:34.202Z,17.06
2018-05-03T12:49:43.040Z,17
2018-05-03T12:50:51.880Z,16.97
2018-05-03T12:52:00.723Z,16.89
2018-05-03T12:53:09.641Z,16.97
2018-05-03T12:54:18.487Z,17.03
2018-05-03T12:55:27.606Z,17.16
2018-05-03T12:56:36.450Z,17.36
2018-05-03T12:57:45.296Z,17.51
2018-05-03T12:58:54.241Z,17.71
2018-05-03T13:00:03.083Z,17.93
2018-05-03T13:01:11.927Z,18.1
2018-05-03T13:02:21.052Z,18.11
2018-05-03T13:03:29.901Z,18.2
2018-05-03T13:04:38.891Z,18.21
2018-05-03T13:05:48.010Z,18.48
2018-05-03T13:06:56.856Z,18.45
2018-05-03T13:08:06.251Z,18.42
2018-05-03T13:09:15.097Z,18.51
2018-05-03T13:10:24.424Z,18.44
2018-05-03T13:11:33.279Z,18.29
2018-05-03T13:12:42.129Z,18.26
2018-05-03T13:13:50.977Z,18.14
2018-05-03T13:14:59.822Z,18.23
2018-05-03T13:16:08.764Z,18.15
2018-05-03T13:17:17.610Z,18.03
2018-05-03T13:18:26.749Z,18.05
2018-05-03T13:19:35.601Z,17.97
2018-05-03T13:20:44.450Z,17.87
2018-05-03T13:21:53.673Z,17.79
2018-05-03T13:23:02.515Z,17.81
2018-05-03T13:24:11.357Z,17.66
2018-05-03T13:25:20.198Z,17.59
2018-05-03T13:26:29.317Z,17.51
2018-05-03T13:27:38.205Z,17.44
2018-05-03T13:28:47.045Z,17.38
2018-05-03T13:29:56.163Z,17.33
2018-05-03T13:31:05.001Z,17.38
2018-05-03T13:32:13.841Z,17.37
2018-05-03T13:33:22.683Z,17.3
2018-05-03T13:34:31.876Z,17.33
2018-05-03T13:35:40.664Z,17.26
2018-05-03T13:36:49.506Z,17.3
2018-05-03T13:37:58.353Z,17.19
2018-05-03T13:39:07.524Z,17.31
2018-05-03T13:40:16.377Z,17.16
2018-05-03T13:41:25.700Z,17.12
2018-05-03T13:42:34.561Z,17.21
2018-05-03T13:43:43.683Z,17.18
2018-05-03T13:44:53.066Z,17.18
2018-05-03T13:46:01.921Z,17.15
2018-05-03T13:47:10.759Z,17.03
2018-05-03T13:48:19.874Z,17.08
2018-05-03T13:49:28.791Z,17.07
2018-05-03T13:50:37.656Z,16.94
2018-05-03T13:51:46.499Z,17.01
2018-05-03T13:52:55.338Z,17.06
2018-05-03T13:54:04.177Z,17.33
2018-05-03T13:55:13.017Z,17.74
2018-05-03T13:56:22.059Z,17.89
2018-05-03T13:57:30.896Z,18.3
2018-05-03T13:58:39.739Z,18.57
2018-05-03T13:59:48.854Z,18.78
2018-05-03T14:00:58.075Z,18.8
2018-05-03T14:02:07.016Z,18.87
2018-05-03T14:03:15.861Z,18.7
2018-05-03T14:04:24.997Z,18.72
2018-05-03T14:05:33.847Z,18.84
2018-05-03T14:06:42.965Z,18.75
2018-05-03T14:07:51.863Z,18.58
2018-05-03T14:09:00.708Z,18.6
2018-05-03T14:10:09.556Z,18.57
2018-05-03T14:11:18.677Z,18.54
2018-05-03T14:12:27.516Z,18.33
2018-05-03T14:13:36.460Z,18.33
2018-05-03T14:14:45.302Z,18.18
2018-05-03T14:15:54.424Z,18.2
2018-05-03T14:17:03.277Z,18.15
2018-05-03T14:18:12.391Z,18.14
2018-05-03T14:19:21.836Z,18.21
2018-05-03T14:20:31.138Z,18.17
2018-05-03T14:21:39.984Z,18.2
2018-05-03T14:22:48.832Z,18.21
2018-05-03T14:23:57.667Z,18.21
2018-05-03T14:25:06.886Z,18.12
2018-05-03T14:26:16.002Z,18.08
2018-05-03T14:27:24.844Z,17.97
2018-05-03T14:28:33.684Z,18.02
2018-05-03T14:29:42.796Z,17.95
2018-05-03T14:30:51.737Z,17.9
2018-05-03T14:32:00.583Z,17.97
2018-05-03T14:33:09.696Z,17.95
2018-05-03T14:34:18.538Z,17.96
2018-05-03T14:35:27.376Z,17.93
2018-05-03T14:36:36.589Z,17.86
2018-05-03T14:37:45.707Z,17.87
2018-05-03T14:38:54.548Z,17.89
2018-05-03T14:40:03.391Z,17.84
2018-05-03T14:41:12.228Z,17.78
2018-05-03T14:42:21.444Z,17.78
2018-05-03T14:43:30.282Z,17.81
2018-05-03T14:44:39.118Z,17.75
2018-05-03T14:45:47.960Z,17.7
2018-05-03T14:46:56.798Z,17.58
2018-05-03T14:48:05.737Z,17.68
2018-05-03T14:49:14.579Z,17.72
2018-05-03T14:50:23.419Z,17.64
2018-05-03T14:51:32.262Z,17.7
2018-05-03T14:52:41.101Z,17.71
2018-05-03T14:53:49.938Z,17.75
2018-05-03T14:54:58.782Z,17.81
2018-05-03T14:56:07.617Z,17.79